Time;durP1;ratioP1;P1;durP2;ratioP2;P2;SDS_P1;SDS_P2;PMS_P1;PMS_P2;Temp;Humidity;BMP_temperature;BMP_pressure;BME280_temperature;BME280_humidity;BME280_pressure;Samples;Min_cycle;Max_cycle;Signal;HPM_P1;HPM_P2
2021/08/03 00:00:53;;;;;;;3.50;1.67;;;;;;;20.46;69.60;100928.60;1788740;80;25762;-60
2021/08/03 00:03:33;;;;;;;8.75;2.20;;;;;;;20.28;69.73;100929.09;1781030;80;26151;-61
2021/08/03 00:06:10;;;;;;;13.25;2.22;;;;;;;20.21;70.09;100929.56;1773421;80;25825;-60
2021/08/03 00:08:45;;;;;;;8.05;2.45;;;;;;;20.16;70.10;100926.56;1774456;80;25891;-61
2021/08/03 00:11:12;;;;;;;7.20;2.58;;;;;;;20.20;69.95;100929.74;1788792;80;27535;-61
2021/08/03 00:13:39;;;;;;;15.25;2.20;;;;;;;20.19;69.91;100937.11;1789533;80;25742;-60
2021/08/03 00:16:10;;;;;;;9.28;2.47;;;;;;;20.14;70.05;100934.09;1764711;80;25709;-61
2021/08/03 00:18:39;;;;;;;5.30;1.90;;;;;;;20.16;69.89;100938.34;1757918;80;25883;-61
2021/08/03 00:21:08;;;;;;;7.65;2.27;;;;;;;20.12;69.88;100945.77;1812452;78;25856;-61
2021/08/03 00:23:38;;;;;;;6.05;1.90;;;;;;;20.05;69.88;100949.78;1812622;77;28157;-61
2021/08/03 00:26:06;;;;;;;10.78;2.52;;;;;;;20.09;69.91;100943.41;1817559;78;25706;-61
2021/08/03 00:28:34;;;;;;;5.35;1.95;;;;;;;20.13;69.82;100941.46;1817672;78;25789;-60
2021/08/03 00:31:01;;;;;;;5.50;2.00;;;;;;;20.11;69.79;100946.27;1817547;78;25844;-60
2021/08/03 00:33:29;;;;;;;6.70;2.17;;;;;;;20.10;69.74;100943.73;1785821;78;25758;-61
2021/08/03 00:35:56;;;;;;;9.00;2.10;;;;;;;20.07;69.70;100942.25;1817562;78;28149;-61
2021/08/03 00:38:24;;;;;;;13.20;2.02;;;;;;;20.09;69.74;100948.87;1813334;78;25907;-61
2021/08/03 00:41:05;;;;;;;3.72;1.90;;;;;;;20.06;69.77;100951.98;1766021;81;36292;-61
2021/08/03 00:43:32;;;;;;;5.65;2.30;;;;;;;19.99;69.79;100954.14;1766089;81;26271;-61
2021/08/03 00:46:00;;;;;;;4.40;1.90;;;;;;;19.94;70.15;100958.48;1766337;81;25853;-61
2021/08/03 00:48:27;;;;;;;7.28;2.00;;;;;;;19.91;70.20;100969.28;1766578;81;27467;-61
2021/08/03 00:50:54;;;;;;;9.08;1.77;;;;;;;19.89;70.32;100965.89;1766337;80;26479;-61
2021/08/03 00:53:21;;;;;;;8.93;2.95;;;;;;;19.87;70.37;100974.78;1813704;78;25707;-61
2021/08/03 00:55:50;;;;;;;7.83;2.25;;;;;;;19.89;70.22;100978.70;1817784;78;25795;-61
2021/08/03 00:58:18;;;;;;;9.10;2.42;;;;;;;19.91;70.26;100983.43;1817967;78;25736;-61
2021/08/03 01:00:45;;;;;;;10.80;2.65;;;;;;;19.98;70.10;100987.94;1817753;78;27500;-61
2021/08/03 01:03:13;;;;;;;7.70;2.08;;;;;;;20.00;69.70;100987.23;1800914;78;25810;-61
2021/08/03 01:06:08;;;;;;;13.25;2.87;;;;;;;19.95;69.58;100986.95;1799397;78;25774;-60
2021/08/03 01:09:01;;;;;;;7.30;2.60;;;;;;;19.83;69.70;100997.50;1785656;80;25896;-61
2021/08/03 01:11:53;;;;;;;10.13;2.50;;;;;;;19.73;70.01;100994.22;1817880;78;26001;-60
2021/08/03 01:14:35;;;;;;;12.45;2.42;;;;;;;19.75;69.85;101003.07;1778630;80;27415;-60
2021/08/03 01:17:10;;;;;;;4.55;2.30;;;;;;;19.75;69.86;101009.06;1809610;78;25734;-60
2021/08/03 01:20:10;;;;;;;8.55;2.47;;;;;;;19.76;69.74;101003.94;1791012;80;26623;-61
2021/08/03 01:23:05;;;;;;;12.05;2.50;;;;;;;19.75;69.84;101004.97;1758489;81;26452;-60
2021/08/03 01:26:29;;;;;;;6.08;2.37;;;;;;;19.68;69.62;101008.44;1791216;80;25814;-61
2021/08/03 01:28:59;;;;;;;;;;;;;;;19.59;69.90;101010.95;1761176;81;26894;-60
2021/08/03 01:31:36;;;;;;;9.50;2.25;;;;;;;19.57;70.21;101018.50;1811091;78;25717;-62
2021/08/03 01:34:13;;;;;;;7.17;2.05;;;;;;;19.54;69.96;101014.78;1824140;78;25769;-61
2021/08/03 01:36:49;;;;;;;4.95;1.85;;;;;;;19.51;70.11;101026.06;1823745;78;26124;-61
2021/08/03 01:39:25;;;;;;;7.67;2.62;;;;;;;19.48;70.00;101027.82;1824063;78;25745;-61
2021/08/03 01:41:54;;;;;;;15.50;2.58;;;;;;;19.45;70.16;101032.28;1823485;78;27387;-61
2021/08/03 01:44:23;;;;;;;7.20;2.42;;;;;;;19.42;70.18;101036.73;1823530;78;25753;-62
2021/08/03 01:46:52;;;;;;;10.60;2.95;;;;;;;19.39;70.28;101041.56;1823011;78;26591;-61
2021/08/03 01:49:22;;;;;;;6.30;2.77;;;;;;;19.35;70.27;101033.94;1821135;78;25746;-61
2021/08/03 01:51:52;;;;;;;5.92;2.10;;;;;;;19.34;70.28;101028.15;1787646;80;26602;-61
2021/08/03 01:54:21;;;;;;;10.18;2.33;;;;;;;19.34;70.41;101022.16;1787873;80;27422;-61
2021/08/03 01:56:51;;;;;;;13.45;2.67;;;;;;;19.31;70.62;101028.02;1758870;80;25877;-61
2021/08/03 01:59:19;;;;;;;12.25;2.72;;;;;;;19.28;70.49;101022.06;1788070;80;25733;-63
2021/08/03 02:01:46;;;;;;;6.10;2.58;;;;;;;19.33;70.39;101019.64;1823496;78;25778;-62
2021/08/03 02:04:16;;;;;;;11.00;2.80;;;;;;;19.40;70.33;101027.39;1793575;78;25767;-62
2021/08/03 02:06:44;;;;;;;8.18;2.47;;;;;;;19.43;70.20;101035.20;1782561;79;27462;-61
2021/08/03 02:09:15;;;;;;;9.90;2.58;;;;;;;19.47;70.11;101042.49;1782235;79;25794;-63
2021/08/03 02:11:46;;;;;;;9.43;2.40;;;;;;;19.48;70.15;101046.39;1782577;79;25715;-62
2021/08/03 02:14:14;;;;;;;5.25;2.35;;;;;;;19.52;70.25;101052.31;1784594;78;26440;-62
2021/08/03 02:17:02;;;;;;;9.75;2.72;;;;;;;19.62;70.07;101047.95;1807376;78;25807;-62
2021/08/03 02:19:31;;;;;;;14.05;3.30;;;;;;;19.71;69.83;101029.91;1792789;78;27586;-63
2021/08/03 02:22:06;;;;;;;6.90;2.30;;;;;;;19.78;69.59;101031.86;1770871;80;25959;-62
2021/08/03 02:24:36;;;;;;;6.28;2.50;;;;;;;19.86;69.49;101031.78;1759377;81;25767;-61
2021/08/03 02:27:04;;;;;;;12.03;2.40;;;;;;;19.93;69.27;101036.83;1759622;81;25779;-63
2021/08/03 02:29:36;;;;;;;4.87;2.70;;;;;;;20.03;69.13;101038.41;1759452;80;25705;-62
2021/08/03 02:32:16;;;;;;;6.55;2.55;;;;;;;20.09;68.73;101044.45;1755869;81;27577;-62
2021/08/03 02:35:12;;;;;;;7.03;2.55;;;;;;;20.09;68.34;101043.92;1755369;80;25799;-62
2021/08/03 02:37:47;;;;;;;5.30;3.05;;;;;;;20.03;67.92;101047.43;1756074;80;25537;-62
2021/08/03 02:40:15;;;;;;;6.87;2.92;;;;;;;19.82;67.98;101043.57;1756004;81;25830;-63
2021/08/03 02:42:48;;;;;;;11.53;3.75;;;;;;;19.73;68.26;101040.63;1767587;80;25640;-62
2021/08/03 02:45:17;;;;;;;7.17;2.70;;;;;;;19.61;68.52;101052.54;1790937;80;27473;-63
2021/08/03 02:47:53;;;;;;;7.25;3.00;;;;;;;19.46;69.15;101059.89;1790604;80;26029;-62
2021/08/03 02:50:26;;;;;;;7.37;3.25;;;;;;;19.34;69.60;101063.08;1791056;80;25633;-62
2021/08/03 02:52:56;;;;;;;15.75;3.50;;;;;;;19.24;70.04;101074.28;1759549;80;25851;-62
2021/08/03 02:55:40;;;;;;;4.15;2.83;;;;;;;19.21;70.07;101088.27;1788424;80;25755;-61
2021/08/03 02:58:14;;;;;;;9.23;2.33;;;;;;;19.23;70.00;101101.72;1793046;80;27507;-62
2021/08/03 03:00:45;;;;;;;6.30;3.33;;;;;;;19.26;70.23;101110.91;1794432;79;25778;-63
2021/08/03 03:03:21;;;;;;;6.35;3.08;;;;;;;19.20;70.49;101115.21;1792439;80;25666;-62
2021/08/03 03:06:00;;;;;;;9.75;3.08;;;;;;;19.16;70.67;101104.86;1791110;80;26471;-62
2021/08/03 03:08:30;;;;;;;10.05;2.90;;;;;;;19.14;70.58;101098.77;1790609;80;25703;-62
2021/08/03 03:11:02;;;;;;;8.28;2.90;;;;;;;19.20;70.60;101095.28;1781166;80;27501;-63
2021/08/03 03:13:39;;;;;;;8.18;2.55;;;;;;;19.30;70.58;101091.78;1757361;80;25754;-62
2021/08/03 03:16:08;;;;;;;7.53;2.58;;;;;;;19.41;70.33;101073.27;1783040;79;25690;-62
2021/08/03 03:18:36;;;;;;;10.08;2.92;;;;;;;19.51;70.40;101078.77;1790843;80;25790;-64
2021/08/03 03:21:05;;;;;;;12.37;3.33;;;;;;;19.57;70.12;101096.27;1760005;80;25883;-62
2021/08/03 03:23:35;;;;;;;6.37;2.58;;;;;;;19.68;70.24;101103.96;1790665;80;27514;-62
2021/08/03 03:26:05;;;;;;;7.35;2.60;;;;;;;19.78;70.28;101099.60;1759750;80;25749;-62
2021/08/03 03:28:36;;;;;;;5.33;3.27;;;;;;;19.75;69.73;101101.33;1790799;80;25790;-62
2021/08/03 03:31:05;;;;;;;10.95;3.15;;;;;;;19.77;69.64;101103.86;1759576;80;25955;-62
2021/08/03 03:33:37;;;;;;;5.15;3.58;;;;;;;19.74;69.46;101109.19;1790956;80;25718;-62
2021/08/03 03:36:08;;;;;;;11.73;4.60;;;;;;;19.68;69.70;101118.14;1790984;80;27452;-62
2021/08/03 03:38:39;;;;;;;9.25;5.00;;;;;;;19.57;70.12;101125.42;1790784;80;25772;-63
2021/08/03 03:41:08;;;;;;;8.25;3.85;;;;;;;19.49;70.55;101114.09;1756161;80;25733;-62
2021/08/03 03:43:35;;;;;;;5.53;3.00;;;;;;;19.54;70.83;101111.11;1756194;81;25774;-63
2021/08/03 03:46:07;;;;;;;10.43;2.90;;;;;;;19.62;71.55;101109.34;1755885;81;25834;-63
2021/08/03 03:48:40;;;;;;;8.63;4.80;;;;;;;19.69;71.43;101112.48;1756228;81;28392;-62
2021/08/03 03:51:12;;;;;;;11.75;5.00;;;;;;;19.76;71.19;101118.05;1784857;80;25972;-61
2021/08/03 03:53:50;;;;;;;9.88;3.60;;;;;;;19.85;71.09;101117.48;1790850;80;25849;-62
2021/08/03 03:56:18;;;;;;;8.68;3.72;;;;;;;19.84;70.21;101116.58;1728731;81;26570;-62
2021/08/03 03:58:54;;;;;;;17.48;7.65;;;;;;;19.79;69.88;101127.23;1766439;80;26083;-62
2021/08/03 04:01:25;;;;;;;9.90;4.40;;;;;;;19.74;70.13;101126.93;1791120;80;27442;-62
2021/08/03 04:03:58;;;;;;;7.20;3.80;;;;;;;19.73;70.09;101125.77;1759332;80;25855;-62
2021/08/03 04:06:26;;;;;;;9.88;3.17;;;;;;;19.78;70.30;101120.08;1791075;80;25460;-61
2021/08/03 04:08:53;;;;;;;6.87;3.58;;;;;;;19.84;70.10;101115.21;1759708;80;25822;-62
2021/08/03 04:11:21;;;;;;;10.75;3.12;;;;;;;19.92;70.10;101114.31;1790811;80;26467;-61
2021/08/03 04:13:51;;;;;;;7.05;3.22;;;;;;;19.94;70.02;101117.70;1790096;80;28334;-61
2021/08/03 04:16:20;;;;;;;13.50;3.77;;;;;;;19.92;69.99;101121.63;1782013;80;25779;-62
2021/08/03 04:18:48;;;;;;;10.28;3.85;;;;;;;19.91;69.97;101118.58;1790933;80;25699;-62
2021/08/03 04:21:16;;;;;;;8.73;3.70;;;;;;;19.94;70.28;101121.80;1790434;80;26546;-62
2021/08/03 04:23:43;;;;;;;20.62;8.45;;;;;;;19.96;70.11;101121.59;1790914;80;25815;-62
2021/08/03 04:26:11;;;;;;;11.25;5.00;;;;;;;19.98;70.02;101121.73;1790757;80;27422;-62
2021/08/03 04:28:38;;;;;;;12.40;3.98;;;;;;;19.97;69.91;101115.94;1790800;80;25717;-63
2021/08/03 04:31:05;;;;;;;13.00;4.22;;;;;;;19.89;69.55;101125.59;1790736;80;25796;-62
2021/08/03 04:33:32;;;;;;;13.93;3.58;;;;;;;19.75;69.59;101119.61;1790860;80;26553;-61
2021/08/03 04:35:59;;;;;;;12.45;3.83;;;;;;;19.67;69.67;101127.36;1790871;80;25981;-62
2021/08/03 04:38:26;;;;;;;8.58;3.25;;;;;;;19.62;69.98;101127.92;1790738;80;27723;-63
2021/08/03 04:40:53;;;;;;;6.17;3.30;;;;;;;19.65;70.25;101123.96;1790681;80;26381;-62
2021/08/03 04:43:20;;;;;;;16.48;3.95;;;;;;;19.69;70.21;101128.86;1790979;80;25727;-62
2021/08/03 04:45:47;;;;;;;8.53;3.25;;;;;;;19.70;70.21;101137.38;1769288;80;25803;-62
2021/08/03 04:48:14;;;;;;;8.35;3.58;;;;;;;19.67;69.97;101140.50;1785822;80;25762;-62
2021/08/03 04:50:41;;;;;;;7.67;3.33;;;;;;;19.67;70.02;101140.50;1790681;80;27471;-61
2021/08/03 04:53:08;;;;;;;8.83;3.30;;;;;;;19.65;70.12;101147.16;1790790;80;25513;-63
2021/08/03 04:55:35;;;;;;;5.47;3.27;;;;;;;19.74;70.24;101141.11;1790560;80;25830;-60
2021/08/03 04:58:02;;;;;;;7.78;3.33;;;;;;;19.85;70.29;101140.67;1791035;80;26590;-62
2021/08/03 05:00:30;;;;;;;14.15;3.83;;;;;;;19.96;70.30;101143.44;1769719;80;25803;-62
2021/08/03 05:02:57;;;;;;;14.10;3.30;;;;;;;20.08;70.28;101147.90;1769521;80;27448;-61
2021/08/03 05:05:24;;;;;;;6.83;3.27;;;;;;;20.11;69.62;101147.53;1790836;80;25743;-64
2021/08/03 05:08:00;;;;;;;9.23;3.17;;;;;;;20.16;69.48;101155.48;1790336;80;25828;-62
2021/08/03 05:10:29;;;;;;;13.30;3.70;;;;;;;20.15;68.94;101151.55;1790957;80;25745;-62
2021/08/03 05:12:57;;;;;;;7.17;3.20;;;;;;;20.18;68.92;101152.02;1790833;80;26207;-62
2021/08/03 05:15:25;;;;;;;7.85;2.92;;;;;;;20.22;68.83;101148.38;1785217;80;28132;-63
2021/08/03 05:17:53;;;;;;;10.88;3.30;;;;;;;20.26;68.75;101158.44;1783295;79;25787;-62
2021/08/03 05:20:21;;;;;;;7.80;3.62;;;;;;;20.28;68.70;101150.38;1780448;80;25723;-62
2021/08/03 05:22:49;;;;;;;9.08;3.77;;;;;;;20.30;68.61;101152.41;1781220;80;25825;-62
2021/08/03 05:25:17;;;;;;;12.95;3.75;;;;;;;20.29;68.50;101169.83;1780854;80;25718;-62
2021/08/03 05:27:44;;;;;;;10.23;3.47;;;;;;;20.31;68.86;101168.27;1780830;80;28241;-61
2021/08/03 05:30:13;;;;;;;9.50;3.12;;;;;;;20.30;68.89;101170.16;1790138;79;25785;-61
2021/08/03 05:32:40;;;;;;;15.43;3.20;;;;;;;20.33;69.12;101173.85;1794667;79;26408;-61
2021/08/03 05:35:09;;;;;;;5.30;2.80;;;;;;;20.37;68.90;101177.58;1770828;79;27145;-61
2021/08/03 05:37:36;;;;;;;7.10;2.72;;;;;;;20.40;68.88;101168.48;1748214;81;25885;-61
2021/08/03 05:40:08;;;;;;;7.85;3.02;;;;;;;20.43;68.57;101165.87;1759003;81;28174;-61
2021/08/03 05:42:40;;;;;;;5.78;2.90;;;;;;;20.44;68.45;101173.87;1760023;79;26293;-62
2021/08/03 05:45:09;;;;;;;5.70;3.05;;;;;;;20.48;68.44;101173.83;1758744;81;25767;-63
2021/08/03 05:47:36;;;;;;;8.10;3.47;;;;;;;20.52;68.38;101177.55;1760835;81;25825;-62
2021/08/03 05:50:05;;;;;;;8.95;3.10;;;;;;;20.54;68.40;101180.92;1764070;79;25825;-62
2021/08/03 05:52:33;;;;;;;6.92;3.08;;;;;;;20.57;68.59;101184.14;1788041;80;27515;-61
2021/08/03 05:55:00;;;;;;;6.95;3.05;;;;;;;20.62;68.20;101185.77;1766345;80;25806;-62
2021/08/03 05:57:30;;;;;;;12.10;2.90;;;;;;;20.63;68.02;101185.23;1784451;78;26154;-62
2021/08/03 05:59:55;;;;;;;9.15;3.00;;;;;;;20.67;67.92;101190.66;1759786;81;25795;-62
2021/08/03 06:02:22;;;;;;;5.72;2.37;;;;;;;20.73;67.88;101183.57;1784518;80;25743;-61
2021/08/03 06:04:49;;;;;;;6.87;2.75;;;;;;;20.76;67.67;101184.56;1784564;80;28165;-61
2021/08/03 06:07:18;;;;;;;4.30;2.70;;;;;;;20.82;67.74;101184.31;1752811;80;26710;-61
2021/08/03 06:09:48;;;;;;;7.47;3.42;;;;;;;20.87;67.59;101185.42;1786331;80;25719;-60
2021/08/03 06:12:16;;;;;;;5.15;2.67;;;;;;;20.92;67.43;101188.44;1784304;79;26591;-61
2021/08/03 06:14:44;;;;;;;7.55;2.83;;;;;;;20.97;67.29;101185.13;1788000;79;25829;-61
2021/08/03 06:17:16;;;;;;;6.37;2.90;;;;;;;21.03;67.24;101188.94;1793760;79;26924;-62
2021/08/03 06:19:50;;;;;;;6.58;3.17;;;;;;;21.08;67.14;101186.48;1813265;79;25762;-61
2021/08/03 06:22:18;;;;;;;4.35;2.70;;;;;;;21.07;66.79;101183.41;1813511;77;25774;-61
2021/08/03 06:24:50;;;;;;;9.28;2.52;;;;;;;21.10;66.84;101188.50;1797670;79;26699;-61
2021/08/03 06:27:19;;;;;;;6.17;3.22;;;;;;;21.15;67.01;101190.66;1769405;80;26150;-61
2021/08/03 06:29:47;;;;;;;3.15;2.35;;;;;;;21.22;67.01;101186.91;1763470;80;28323;-61
2021/08/03 06:32:14;;;;;;;5.65;2.67;;;;;;;21.29;66.83;101187.52;1768559;79;25752;-62
2021/08/03 06:34:43;;;;;;;8.13;2.58;;;;;;;21.33;66.56;101191.53;1771157;80;25763;-62
2021/08/03 06:37:12;;;;;;;4.85;2.27;;;;;;;21.41;66.66;101195.48;1761604;81;25965;-62
2021/08/03 06:39:40;;;;;;;6.85;2.12;;;;;;;21.48;66.63;101192.28;1761777;81;25806;-62
2021/08/03 06:42:35;;;;;;;4.75;1.82;;;;;;;21.54;66.15;101188.77;1745889;81;27497;-63
2021/08/03 06:45:12;;;;;;;3.60;1.75;;;;;;;21.62;65.28;101194.62;1730969;82;25703;-61
2021/08/03 06:48:03;;;;;;;7.47;2.72;;;;;;;21.71;62.82;101198.91;1729913;82;25743;-61
2021/08/03 06:50:44;;;;;;;3.77;1.90;;;;;;;21.79;61.73;101199.80;1747540;81;26210;-62
2021/08/03 06:53:13;;;;;;;3.70;1.80;;;;;;;21.82;61.40;101198.90;1755056;81;25881;-61
2021/08/03 06:55:43;;;;;;;4.28;2.22;;;;;;;21.89;60.82;101197.05;1761027;81;28173;-62
2021/08/03 06:58:30;;;;;;;6.78;1.75;;;;;;;21.98;59.43;101202.36;1762757;80;26572;-62
2021/08/03 07:00:59;;;;;;;8.98;2.15;;;;;;;22.01;59.37;101199.19;1763858;80;26002;-62
2021/08/03 07:03:28;;;;;;;3.65;1.82;;;;;;;22.03;60.16;101197.11;1765056;80;26428;-63
2021/08/03 07:05:57;;;;;;;8.68;2.15;;;;;;;22.11;59.88;101197.47;1765624;80;25812;-62
2021/08/03 07:08:25;;;;;;;11.73;2.00;;;;;;;22.16;60.03;101194.45;1761907;80;27500;-60
2021/08/03 07:10:53;;;;;;;5.47;1.95;;;;;;;22.23;59.83;101197.73;1733588;81;25839;-61
2021/08/03 07:13:21;;;;;;;4.67;1.95;;;;;;;22.27;59.11;101201.78;1748469;79;25755;-61
2021/08/03 07:15:51;;;;;;;5.87;2.10;;;;;;;22.29;59.98;101201.89;1752576;80;25734;-61
2021/08/03 07:18:20;;;;;;;7.47;2.30;;;;;;;22.34;58.99;101194.42;1780141;78;25788;-62
2021/08/03 07:20:50;;;;;;;7.58;2.02;;;;;;;22.38;59.00;101200.34;1782202;79;27499;-62
2021/08/03 07:23:20;;;;;;;7.33;2.05;;;;;;;22.46;58.86;101194.17;1788295;80;25919;-61
2021/08/03 07:25:51;;;;;;;3.02;1.72;;;;;;;22.52;58.83;101204.84;1773041;80;25833;-61
2021/08/03 07:28:19;;;;;;;7.28;1.75;;;;;;;22.58;58.00;101205.92;1776712;80;25877;-61
2021/08/03 07:30:47;;;;;;;6.28;1.75;;;;;;;22.68;57.75;101206.39;1777640;80;25834;-61
2021/08/03 07:33:16;;;;;;;6.62;1.62;;;;;;;22.73;55.55;101212.08;1771755;80;28187;-61
2021/08/03 07:35:44;;;;;;;3.27;1.22;;;;;;;22.78;55.74;101208.22;1767593;80;25902;-61
2021/08/03 07:38:12;;;;;;;6.85;2.50;;;;;;;22.81;55.62;101200.09;1808480;78;25767;-62
2021/08/03 07:40:41;;;;;;;10.82;1.77;;;;;;;22.88;56.37;101206.43;1807195;78;26650;-60
2021/08/03 07:43:09;;;;;;;4.83;1.50;;;;;;;22.95;55.77;101208.66;1803813;78;25747;-63
2021/08/03 07:45:39;;;;;;;6.00;1.50;;;;;;;23.05;54.31;101205.52;1809935;78;27456;-61
2021/08/03 07:48:09;;;;;;;4.92;1.50;;;;;;;23.12;54.12;101211.86;1772813;80;25957;-61
2021/08/03 07:50:37;;;;;;;5.60;1.50;;;;;;;23.21;53.91;101206.20;1783754;80;25870;-61
2021/08/03 07:53:04;;;;;;;3.42;1.67;;;;;;;23.28;53.89;101209.28;1816906;78;25837;-62
2021/08/03 07:55:31;;;;;;;4.03;1.35;;;;;;;23.37;53.48;101204.95;1785919;80;26387;-62
2021/08/03 07:57:58;;;;;;;3.05;1.40;;;;;;;23.40;54.14;101202.63;1817482;78;27526;-62
2021/08/03 08:00:25;;;;;;;6.37;1.70;;;;;;;23.52;54.20;101202.83;1785220;80;25724;-61
2021/08/03 08:02:52;;;;;;;5.15;2.15;;;;;;;23.61;53.10;101200.72;1816985;78;26198;-61
2021/08/03 08:05:19;;;;;;;2.00;1.55;;;;;;;23.64;53.17;101203.02;1804313;78;25793;-61
2021/08/03 08:07:46;;;;;;;4.00;1.57;;;;;;;23.71;52.23;101200.28;1792284;78;26399;-61
2021/08/03 08:10:13;;;;;;;2.75;1.72;;;;;;;23.78;51.59;101202.48;1816440;78;27536;-61
2021/08/03 08:12:40;;;;;;;7.75;1.77;;;;;;;23.78;51.70;101197.53;1785662;79;25942;-61
2021/08/03 08:15:09;;;;;;;5.97;1.50;;;;;;;23.85;52.48;101196.98;1817817;78;26444;-62
2021/08/03 08:17:36;;;;;;;6.03;1.60;;;;;;;23.91;52.25;101193.37;1818306;78;25820;-62
2021/08/03 08:20:04;;;;;;;3.10;1.50;;;;;;;24.07;51.87;101195.67;1788509;80;25802;-62
2021/08/03 08:22:31;;;;;;;4.17;1.57;;;;;;;24.19;50.92;101186.77;1816806;78;27422;-61
2021/08/03 08:24:58;;;;;;;9.63;1.65;;;;;;;24.25;49.61;101183.14;1777450;79;25893;-61
2021/08/03 08:27:26;;;;;;;2.27;1.42;;;;;;;24.30;48.83;101185.23;1795078;78;25862;-62
2021/08/03 08:29:52;;;;;;;2.75;1.52;;;;;;;24.35;49.82;101193.14;1794409;79;26475;-61
2021/08/03 08:32:19;;;;;;;3.77;1.50;;;;;;;24.48;50.55;101192.78;1771120;79;25793;-62
2021/08/03 08:34:46;;;;;;;5.60;1.50;;;;;;;24.59;50.71;101189.87;1817290;78;27479;-61
2021/08/03 08:37:13;;;;;;;9.43;1.30;;;;;;;24.72;49.04;101202.22;1811853;78;26624;-62
2021/08/03 08:39:40;;;;;;;9.28;1.90;;;;;;;24.80;47.81;101196.45;1827087;78;25788;-61
2021/08/03 08:42:07;;;;;;;2.65;1.42;;;;;;;24.86;47.42;101197.48;1809801;78;25862;-61
2021/08/03 08:44:35;;;;;;;6.50;2.10;;;;;;;24.93;47.62;101198.28;1816271;78;25930;-61
2021/08/03 08:47:07;;;;;;;3.40;1.20;;;;;;;24.97;48.43;101192.63;1793758;79;27488;-62
2021/08/03 08:49:34;;;;;;;3.92;1.50;;;;;;;25.05;49.00;101195.66;1793303;78;25890;-62
2021/08/03 08:52:02;;;;;;;7.28;2.17;;;;;;;25.21;48.92;101194.27;1790481;80;25796;-62
2021/08/03 08:54:29;;;;;;;5.72;1.72;;;;;;;25.35;47.83;101191.39;1801601;77;26741;-62
2021/08/03 08:56:55;;;;;;;11.18;5.03;;;;;;;25.47;46.20;101188.27;1768313;80;25723;-62
2021/08/03 08:59:22;;;;;;;3.22;1.50;;;;;;;25.59;45.89;101189.22;1757166;80;27432;-62
2021/08/03 09:01:49;;;;;;;3.83;1.42;;;;;;;25.75;45.79;101188.31;1755290;81;25719;-62
2021/08/03 09:04:16;;;;;;;9.00;1.90;;;;;;;25.88;45.71;101177.69;1768796;81;25863;-61
2021/08/03 09:06:45;;;;;;;3.77;1.50;;;;;;;25.94;44.47;101170.73;1768598;81;25864;-61
2021/08/03 09:09:16;;;;;;;8.65;1.67;;;;;;;26.05;44.89;101164.98;1748077;79;25771;-61
2021/08/03 09:11:46;;;;;;;4.60;1.70;;;;;;;26.20;43.80;101161.00;1800518;79;27535;-62
2021/08/03 09:14:13;;;;;;;6.67;1.50;;;;;;;26.33;44.11;101158.61;1786751;79;25704;-61
2021/08/03 09:16:47;;;;;;;3.55;1.35;;;;;;;26.55;44.30;101161.19;1800904;79;25797;-62
2021/08/03 09:19:38;;;;;;;2.87;1.37;;;;;;;26.74;44.03;101163.89;1779803;79;25978;-62
2021/08/03 09:22:18;;;;;;;9.70;1.45;;;;;;;27.01;44.48;101169.04;1788166;80;26514;-62
2021/08/03 09:24:49;;;;;;;4.22;1.37;;;;;;;27.37;44.04;101165.79;1788234;80;27933;-62
2021/08/03 09:27:39;;;;;;;1.45;1.12;;;;;;;27.69;42.19;101163.23;1788476;80;25789;-62
2021/08/03 09:30:26;;;;;;;2.75;1.40;;;;;;;27.91;41.58;101159.30;1788414;80;25723;-62
2021/08/03 09:32:54;;;;;;;4.58;1.32;;;;;;;28.46;41.09;101161.28;1766623;80;26407;-62
2021/08/03 09:35:23;;;;;;;5.58;1.50;;;;;;;28.62;39.65;101159.09;1774079;80;26484;-62
2021/08/03 09:37:52;;;;;;;3.25;1.00;;;;;;;28.92;38.39;101159.37;1774438;79;28088;-62
2021/08/03 09:40:34;;;;;;;10.10;1.77;;;;;;;29.33;36.40;101156.47;1773375;80;25916;-61
2021/08/03 09:43:11;;;;;;;2.05;1.10;;;;;;;29.49;37.15;101150.09;1774743;80;25830;-61
2021/08/03 09:45:49;;;;;;;12.70;1.50;;;;;;;29.88;37.61;101155.32;1778424;80;26433;-63
2021/08/03 09:48:19;;;;;;;4.17;1.15;;;;;;;30.44;36.59;101153.80;1775389;80;26032;-62
2021/08/03 09:51:08;;;;;;;6.92;1.77;;;;;;;31.00;36.04;101156.88;1771148;80;27459;-63
2021/08/03 09:53:52;;;;;;;9.53;2.17;;;;;;;31.52;35.20;101156.19;1770253;80;25770;-62
2021/08/03 09:56:30;;;;;;;2.95;1.00;;;;;;;31.80;35.27;101158.33;1774945;80;25951;-62
2021/08/03 09:59:09;;;;;;;1.72;1.12;;;;;;;32.00;34.91;101155.37;1792641;79;25790;-63
2021/08/03 10:01:39;;;;;;;6.62;1.40;;;;;;;32.20;34.30;101162.95;1791206;78;25774;-62
2021/08/03 10:04:09;;;;;;;3.17;1.00;;;;;;;31.71;33.79;101168.29;1789791;78;27439;-61
2021/08/03 10:06:39;;;;;;;2.58;1.10;;;;;;;31.16;33.00;101174.56;1788157;80;25763;-62
2021/08/03 10:09:15;;;;;;;1.80;1.05;;;;;;;31.38;33.89;101169.71;1788741;80;25814;-62
2021/08/03 10:11:39;;;;;;;4.45;1.07;;;;;;;32.01;32.84;101158.44;1787433;80;25808;-62
2021/08/03 10:14:06;;;;;;;6.72;1.70;;;;;;;32.53;33.03;101163.66;1788798;80;25916;-62
2021/08/03 10:16:33;;;;;;;2.05;1.10;;;;;;;33.21;32.02;101161.22;1762230;80;27400;-62
2021/08/03 10:19:02;;;;;;;3.10;1.17;;;;;;;33.73;29.17;101162.53;1767633;78;25734;-63
2021/08/03 10:21:46;;;;;;;1.42;0.95;;;;;;;33.09;29.80;101167.62;1785444;80;25846;-62
2021/08/03 10:24:37;;;;;;;2.92;2.08;;;;;;;32.99;30.16;101169.86;1785359;80;26477;-61
2021/08/03 10:27:14;;;;;;;1.15;1.05;;;;;;;33.38;30.26;101166.53;1785433;80;25766;-62
2021/08/03 10:29:53;;;;;;;3.67;1.20;;;;;;;33.98;28.94;101167.77;1785095;80;27563;-62
2021/08/03 10:32:46;;;;;;;1.98;0.90;;;;;;;34.38;28.37;101174.88;1785563;80;25766;-63
2021/08/03 10:35:18;;;;;;;2.47;1.00;;;;;;;34.61;27.56;101170.00;1779470;80;27146;-63
2021/08/03 10:38:02;;;;;;;3.25;1.05;;;;;;;35.31;26.53;101167.23;1779816;80;25787;-62
2021/08/03 10:40:50;;;;;;;10.58;1.30;;;;;;;35.40;26.18;101171.05;1813331;78;25699;-62
2021/08/03 10:43:48;;;;;;;1.70;1.00;;;;;;;35.70;27.67;101171.32;1811351;78;27564;-61
2021/08/03 10:46:17;;;;;;;2.75;1.20;;;;;;;36.31;27.31;101173.69;1783682;78;25901;-62
2021/08/03 10:48:46;;;;;;;3.58;1.07;;;;;;;36.87;26.37;101165.02;1786369;78;25784;-62
2021/08/03 10:51:24;;;;;;;1.12;0.95;;;;;;;37.43;25.94;101159.63;1808626;78;25783;-63
2021/08/03 10:54:16;;;;;;;6.28;1.20;;;;;;;37.81;24.82;101151.02;1784733;78;25741;-63
2021/08/03 10:56:57;;;;;;;3.65;0.80;;;;;;;38.26;23.38;101149.53;1767883;79;27423;-63
2021/08/03 10:59:41;;;;;;;6.12;0.80;;;;;;;38.38;21.96;101137.77;1760343;79;25818;-63
2021/08/03 11:02:35;;;;;;;1.77;1.10;;;;;;;38.43;23.58;101137.63;1774509;79;25910;-62
2021/08/03 11:05:04;;;;;;;5.12;1.02;;;;;;;38.92;23.67;101126.62;1798042;79;26557;-63
2021/08/03 11:07:34;;;;;;;2.42;0.95;;;;;;;39.20;22.76;101121.67;1797512;79;25828;-64
2021/08/03 11:10:21;;;;;;;5.03;1.00;;;;;;;39.25;22.73;101122.95;1766534;81;27466;-63
2021/08/03 11:12:51;;;;;;;4.03;0.90;;;;;;;39.30;21.89;101121.98;1770003;79;25761;-62
2021/08/03 11:15:26;;;;;;;1.77;0.88;;;;;;;39.37;21.77;101114.48;1790337;79;25827;-63
2021/08/03 11:18:02;;;;;;;3.67;0.78;;;;;;;39.62;21.54;101111.53;1794254;79;25780;-62
2021/08/03 11:20:46;;;;;;;12.58;1.45;;;;;;;39.88;21.72;101099.53;1778466;79;26109;-63
2021/08/03 11:23:18;;;;;;;15.55;2.10;;;;;;;39.75;20.71;101106.95;1766240;81;27524;-63
2021/08/03 11:25:47;;;;;;;2.30;0.88;;;;;;;39.54;22.08;101097.67;1782823;79;25820;-63
2021/08/03 11:28:21;;;;;;;1.62;0.70;;;;;;;39.81;21.54;101086.52;1798029;79;25826;-63
2021/08/03 11:30:52;;;;;;;7.33;1.20;;;;;;;40.12;21.09;101077.91;1793250;79;25779;-63
2021/08/03 11:33:21;;;;;;;1.17;0.90;;;;;;;40.39;20.87;101074.53;1791673;79;25821;-63
2021/08/03 11:35:48;;;;;;;2.08;0.80;;;;;;;39.71;20.38;101084.27;1798152;79;28133;-63
2021/08/03 11:38:26;;;;;;;11.50;2.00;;;;;;;38.72;20.86;101092.25;1790274;79;25911;-64
2021/08/03 11:40:47;;;;;;;8.75;1.30;;;;;;;37.47;22.52;101083.52;1780177;79;25876;-64
2021/08/03 11:43:16;;;;;;;4.33;0.90;;;;;;;36.37;23.95;101074.43;1797218;79;25850;-63
2021/08/03 11:45:43;;;;;;;2.67;0.90;;;;;;;36.13;24.13;101071.74;1778199;79;25711;-63